Time;durP1;ratioP1;P1;durP2;ratioP2;P2;SDS_P1;SDS_P2;PMS_P1;PMS_P2;Temp;Humidity;BMP_temperature;BMP_pressure;BME280_temperature;BME280_humidity;BME280_pressure;Samples;Min_cycle;Max_cycle;Signal;HPM_P1;HPM_P2
2023/06/20 00:00:49;;;;;;;;;;;;;;;22.29;68.50;97830.03;7376037;19;19923;-72
2023/06/20 00:03:16;;;;;;;;;;;;;;;22.22;69.24;97841.00;7371440;19;19921;-71
2023/06/20 00:05:44;;;;;;;;;;;;;;;22.21;69.29;97839.34;7376296;19;19918;-71
2023/06/20 00:08:10;;;;;;;;;;;;;;;22.18;69.60;97850.56;7372241;19;19914;-71
2023/06/20 00:10:37;;;;;;;;;;;;;;;22.18;69.31;97855.97;7372352;19;22380;-72
2023/06/20 00:13:04;;;;;;;;;;;;;;;22.17;69.32;97862.41;7375837;19;19929;-72
2023/06/20 00:15:31;;;;;;;;;;;;;;;22.24;69.41;97871.19;7372668;19;19922;-71
2023/06/20 00:18:01;;;;;;;;;;;;;;;22.30;69.45;97872.91;7371569;19;20599;-72
2023/06/20 00:20:28;;;;;;;;;;;;;;;22.32;69.04;97873.47;7371909;19;19918;-74
2023/06/20 00:22:55;;;;;;;;;;;;;;;22.35;68.93;97875.69;7371713;19;19942;-71
2023/06/20 00:25:22;;;;;;;;;;;;;;;22.34;69.20;97897.50;7369133;19;19923;-73
2023/06/20 00:27:49;;;;;;;;;;;;;;;22.40;69.04;97914.56;7366977;19;19918;-71
2023/06/20 00:30:16;;;;;;;;;;;;;;;22.42;68.91;97917.84;7374781;19;19914;-72
2023/06/20 00:32:43;;;;;;;;;;;;;;;22.41;68.71;97914.34;7371932;19;19927;-71
2023/06/20 00:35:10;;;;;;;;;;;;;;;22.45;68.83;97930.81;7373892;19;19918;-71
2023/06/20 00:37:38;;;;;;;;;;;;;;;22.49;68.70;97929.28;7372683;19;19974;-71
2023/06/20 00:40:07;;;;;;;;;;;;;;;22.44;68.41;97938.09;7375412;19;19955;-72
2023/06/20 00:42:34;;;;;;;;;;;;;;;22.47;68.37;97944.88;7368390;19;19918;-71
2023/06/20 00:45:01;;;;;;;;;;;;;;;22.49;68.78;97964.34;7371894;19;19914;-72
2023/06/20 00:47:27;;;;;;;;;;;;;;;22.55;68.95;98001.91;7371222;19;20695;-72
2023/06/20 00:49:54;;;;;;;;;;;;;;;22.63;68.70;98024.97;7374076;19;19986;-71
2023/06/20 00:52:21;;;;;;;;;;;;;;;22.41;69.16;98041.00;7366574;19;19915;-72
2023/06/20 00:54:48;;;;;;;;;;;;;;;22.47;68.38;98052.69;7370769;19;19915;-71
2023/06/20 00:57:17;;;;;;;;;;;;;;;22.45;69.28;98057.50;7376551;19;19933;-72
2023/06/20 00:59:44;;;;;;;;;;;;;;;22.42;70.34;98053.41;7370335;19;19931;-72
2023/06/20 01:02:12;;;;;;;;;;;;;;;22.11;71.57;98060.03;7372728;19;19952;-72
2023/06/20 01:04:39;;;;;;;;;;;;;;;22.07;72.98;98066.97;7371272;19;20574;-72
2023/06/20 01:07:10;;;;;;;;;;;;;;;21.90;73.92;98061.47;7376657;19;19934;-72
2023/06/20 01:09:52;;;;;;;;;;;;;;;21.72;75.83;98067.00;7370873;19;20455;-72
2023/06/20 01:12:19;;;;;;;;;;;;;;;21.52;76.73;98064.69;7370265;19;19926;-72
2023/06/20 01:14:57;;;;;;;;;;;;;;;21.40;77.70;98070.03;7371196;19;19923;-70
2023/06/20 01:17:44;;;;;;;;;;;;;;;21.36;78.30;98082.31;7372272;19;19935;-69
2023/06/20 01:20:13;;;;;;;;;;;;;;;21.20;79.70;98071.16;7372707;19;19922;-69
2023/06/20 01:22:41;;;;;;;;;;;;;;;21.20;79.96;98081.09;7363668;19;21035;-68
2023/06/20 01:25:09;;;;;;;;;;;;;;;21.10;81.33;98076.28;7373031;19;19922;-69
2023/06/20 01:27:38;;;;;;;;;;;;;;;20.94;81.47;98079.66;7369268;19;19922;-72
2023/06/20 01:30:21;;;;;;;;;;;;;;;20.88;81.51;98076.00;7374795;19;19919;-69
2023/06/20 01:32:50;;;;;;;;;;;;;;;20.81;82.15;98083.34;7369761;19;21453;-71
2023/06/20 01:35:19;;;;;;;;;;;;;;;20.70;83.17;98078.75;7370505;19;20305;-70
2023/06/20 01:37:46;;;;;;;;;;;;;;;20.61;83.78;98078.22;7371204;19;19926;-72
2023/06/20 01:40:12;;;;;;;;;;;;;;;20.75;83.79;98085.06;7373223;19;19919;-70
2023/06/20 01:42:39;;;;;;;;;;;;;;;20.72;84.10;98079.31;7365770;19;19925;-71
2023/06/20 01:45:06;;;;;;;;;;;;;;;20.67;85.26;98081.88;7369569;19;20669;-71
2023/06/20 01:47:35;;;;;;;;;;;;;;;20.69;85.18;98069.03;7372303;19;20326;-70
2023/06/20 01:50:01;;;;;;;;;;;;;;;20.66;85.12;98067.63;7368328;19;19936;-71
2023/06/20 01:52:28;;;;;;;;;;;;;;;20.68;85.08;98060.16;7371186;19;19919;-71
2023/06/20 01:54:57;;;;;;;;;;;;;;;20.61;84.33;98044.09;7379271;19;19926;-71
2023/06/20 01:57:25;;;;;;;;;;;;;;;20.60;85.24;98055.09;7374119;19;19929;-70
2023/06/20 01:59:52;;;;;;;;;;;;;;;20.63;85.47;98061.88;7368256;19;19979;-70
2023/06/20 02:02:19;;;;;;;;;;;;;;;20.61;85.65;98049.47;7379121;19;19987;-70
2023/06/20 02:04:47;;;;;;;;;;;;;;;20.59;85.34;98038.16;7377026;19;20475;-70
2023/06/20 02:07:14;;;;;;;;;;;;;;;20.58;85.92;98044.56;7375977;19;20268;-70
2023/06/20 02:09:42;;;;;;;;;;;;;;;20.56;85.75;98048.53;7373263;19;19918;-69
2023/06/20 02:12:09;;;;;;;;;;;;;;;20.57;86.11;98040.25;7374785;19;19918;-69
2023/06/20 02:14:36;;;;;;;;;;;;;;;20.55;85.54;98045.03;7371940;19;19923;-70
2023/06/20 02:17:04;;;;;;;;;;;;;;;20.58;85.77;98046.44;7376072;19;19915;-71
2023/06/20 02:19:31;;;;;;;;;;;;;;;20.58;86.23;98044.56;7376743;19;20328;-71
2023/06/20 02:21:59;;;;;;;;;;;;;;;20.51;86.54;98035.75;7374374;19;22645;-70
2023/06/20 02:24:26;;;;;;;;;;;;;;;20.54;86.23;98032.66;7375142;19;19918;-70
2023/06/20 02:26:53;;;;;;;;;;;;;;;20.38;86.86;98019.81;7374696;19;19927;-72
2023/06/20 02:29:19;;;;;;;;;;;;;;;20.44;86.86;98021.59;7376785;19;19918;-70
2023/06/20 02:31:48;;;;;;;;;;;;;;;20.45;86.54;98025.91;7371656;19;20286;-70
2023/06/20 02:34:15;;;;;;;;;;;;;;;20.47;86.30;98028.38;7374337;19;19947;-71
2023/06/20 02:36:42;;;;;;;;;;;;;;;20.38;86.61;98020.63;7346530;19;19919;-71
2023/06/20 02:39:09;;;;;;;;;;;;;;;20.43;86.39;98014.56;7371825;19;20352;-70
2023/06/20 02:41:35;;;;;;;;;;;;;;;20.43;86.20;98022.63;7368439;19;20345;-70
2023/06/20 02:44:02;;;;;;;;;;;;;;;20.39;85.57;98008.03;7374503;19;19922;-70
2023/06/20 02:46:31;;;;;;;;;;;;;;;20.36;85.74;98000.41;7364141;19;19915;-71
2023/06/20 02:49:02;;;;;;;;;;;;;;;20.33;85.45;97998.19;7370004;19;19922;-70
2023/06/20 02:51:31;;;;;;;;;;;;;;;20.28;85.68;97988.13;7368085;19;19926;-72
2023/06/20 02:54:09;;;;;;;;;;;;;;;20.24;85.21;97980.72;7371420;19;20308;-70
2023/06/20 02:56:36;;;;;;;;;;;;;;;20.25;85.19;97977.84;7364144;19;19937;-70
2023/06/20 02:59:02;;;;;;;;;;;;;;;20.23;84.78;97982.59;7374097;19;19986;-70
2023/06/20 03:01:30;;;;;;;;;;;;;;;20.27;84.79;97985.66;7371821;19;19922;-71
2023/06/20 03:03:57;;;;;;;;;;;;;;;20.19;85.17;97989.47;7366796;19;19923;-72
2023/06/20 03:06:27;;;;;;;;;;;;;;;20.17;84.98;97987.03;7374038;19;19918;-71
2023/06/20 03:08:58;;;;;;;;;;;;;;;20.13;85.27;97993.88;7373752;19;19926;-71
2023/06/20 03:11:25;;;;;;;;;;;;;;;20.16;85.03;97984.56;7357986;19;19956;-72
2023/06/20 03:13:51;;;;;;;;;;;;;;;20.11;85.61;97992.47;7369826;19;19929;-71
2023/06/20 03:16:18;;;;;;;;;;;;;;;20.14;85.23;97998.22;7375006;19;20627;-72
2023/06/20 03:18:47;;;;;;;;;;;;;;;20.12;85.57;98011.06;7372051;19;19918;-73
2023/06/20 03:21:15;;;;;;;;;;;;;;;20.12;85.30;98019.13;7372422;19;19931;-72
2023/06/20 03:23:54;;;;;;;;;;;;;;;19.97;86.10;98024.03;7367113;19;19934;-73
2023/06/20 03:26:21;;;;;;;;;;;;;;;19.86;86.03;98006.00;7373348;19;19928;-72
2023/06/20 03:28:48;;;;;;;;;;;;;;;19.83;85.79;98019.88;7369850;19;19982;-72
2023/06/20 03:31:15;;;;;;;;;;;;;;;19.87;85.45;98010.31;7371307;19;19922;-73
2023/06/20 03:33:42;;;;;;;;;;;;;;;19.91;85.33;98022.25;7367901;19;19927;-73
2023/06/20 03:36:09;;;;;;;;;;;;;;;19.86;85.20;98009.50;7372955;19;19910;-73
2023/06/20 03:38:37;;;;;;;;;;;;;;;19.84;85.35;98011.59;7369020;19;20344;-72
2023/06/20 03:41:03;;;;;;;;;;;;;;;19.88;85.20;98015.47;7370571;19;19940;-73
2023/06/20 03:43:31;;;;;;;;;;;;;;;19.90;85.32;98002.63;7366351;19;20307;-73
2023/06/20 03:45:57;;;;;;;;;;;;;;;19.82;85.74;98010.97;7367855;19;19915;-73
2023/06/20 03:48:24;;;;;;;;;;;;;;;19.97;85.21;98009.81;7371441;19;19923;-72
2023/06/20 03:50:51;;;;;;;;;;;;;;;20.04;84.93;98010.56;7371259;19;19923;-74
2023/06/20 03:53:18;;;;;;;;;;;;;;;20.14;84.10;98006.28;7371582;19;19921;-72
2023/06/20 03:55:45;;;;;;;;;;;;;;;20.16;84.25;98006.84;7367070;19;19930;-73
2023/06/20 03:58:12;;;;;;;;;;;;;;;20.05;84.99;98004.94;7371898;19;19918;-73
2023/06/20 04:00:39;;;;;;;;;;;;;;;20.01;85.11;98002.91;7372898;19;20620;-73
2023/06/20 04:03:06;;;;;;;;;;;;;;;20.03;85.33;98006.22;7366652;19;19934;-72
2023/06/20 04:05:33;;;;;;;;;;;;;;;20.05;85.34;98007.63;7366413;19;19922;-73
2023/06/20 04:08:01;;;;;;;;;;;;;;;20.15;84.37;98007.91;7373437;19;19915;-72
2023/06/20 04:10:28;;;;;;;;;;;;;;;20.14;84.11;98006.28;7370365;19;20028;-73
2023/06/20 04:12:55;;;;;;;;;;;;;;;20.16;83.81;98006.84;7369746;19;19933;-73
2023/06/20 04:15:21;;;;;;;;;;;;;;;20.17;84.12;97996.94;7367937;19;19923;-73
2023/06/20 04:17:49;;;;;;;;;;;;;;;20.10;84.57;98010.44;7368528;19;20323;-73
2023/06/20 04:20:16;;;;;;;;;;;;;;;20.15;84.96;98005.22;7370214;19;19923;-73
2023/06/20 04:22:46;;;;;;;;;;;;;;;20.28;84.28;98014.97;7366539;19;19922;-73
2023/06/20 04:25:13;;;;;;;;;;;;;;;20.41;84.65;98013.19;7371671;19;20368;-73
2023/06/20 04:27:39;;;;;;;;;;;;;;;20.42;85.28;98007.56;7370400;19;19919;-73
2023/06/20 04:30:06;;;;;;;;;;;;;;;20.56;84.70;98001.00;7371198;19;20407;-74
2023/06/20 04:32:34;;;;;;;;;;;;;;;20.64;84.86;98002.50;7367018;19;19915;-73
2023/06/20 04:35:01;;;;;;;;;;;;;;;20.75;84.85;98000.94;7365919;19;20355;-72
2023/06/20 04:37:29;;;;;;;;;;;;;;;20.89;84.53;97998.84;7362573;19;19926;-73
2023/06/20 04:39:58;;;;;;;;;;;;;;;20.96;83.86;97994.19;7372132;19;19911;-72
2023/06/20 04:42:25;;;;;;;;;;;;;;;21.04;83.68;98002.72;7368947;19;19959;-73
2023/06/20 04:44:52;;;;;;;;;;;;;;;21.08;83.37;98003.06;7370762;19;21234;-72
2023/06/20 04:47:19;;;;;;;;;;;;;;;21.11;83.30;98001.78;7370685;19;19982;-73
2023/06/20 04:49:46;;;;;;;;;;;;;;;21.11;82.52;97991.84;7367710;19;20470;-73
2023/06/20 04:52:13;;;;;;;;;;;;;;;21.04;83.14;97988.47;7366692;19;19926;-72
2023/06/20 04:54:39;;;;;;;;;;;;;;;21.08;82.85;97991.50;7366906;19;20254;-73
2023/06/20 04:57:06;;;;;;;;;;;;;;;21.13;82.41;97991.63;7366774;19;19927;-73
2023/06/20 04:59:35;;;;;;;;;;;;;;;21.10;82.00;97989.41;7368726;19;19935;-73
2023/06/20 05:02:05;;;;;;;;;;;;;;;21.11;83.23;97991.03;7367474;19;19923;-73
2023/06/20 05:04:32;;;;;;;;;;;;;;;21.17;83.21;97998.16;7362334;19;20377;-72
2023/06/20 05:07:00;;;;;;;;;;;;;;;21.38;82.68;98000.31;7369009;19;19947;-73
2023/06/20 05:09:27;;;;;;;;;;;;;;;21.44;82.27;98007.44;7368879;19;19927;-72
2023/06/20 05:11:54;;;;;;;;;;;;;;;21.54;82.18;98006.03;7369406;19;20124;-73
2023/06/20 05:14:26;;;;;;;;;;;;;;;21.65;81.46;98022.19;7369245;19;19922;-73
2023/06/20 05:16:52;;;;;;;;;;;;;;;21.67;80.83;98025.47;7364444;19;19918;-72
2023/06/20 05:19:19;;;;;;;;;;;;;;;21.55;81.04;98018.44;7367658;19;19926;-73
2023/06/20 05:21:46;;;;;;;;;;;;;;;21.66;80.97;98028.38;7362161;19;19943;-73
2023/06/20 05:24:13;;;;;;;;;;;;;;;21.54;81.43;98024.88;7361084;19;19923;-73
2023/06/20 05:26:41;;;;;;;;;;;;;;;21.66;80.51;98039.13;7362711;19;19919;-71
2023/06/20 05:29:07;;;;;;;;;;;;;;;21.71;78.99;98033.88;7364840;19;19923;-72
2023/06/20 05:31:39;;;;;;;;;;;;;;;21.85;78.84;98035.28;7363719;19;19918;-71
2023/06/20 05:34:05;;;;;;;;;;;;;;;21.79;78.55;98038.09;7365355;19;19923;-72
2023/06/20 05:36:32;;;;;;;;;;;;;;;21.86;77.93;98049.56;7364053;19;19927;-71
2023/06/20 05:38:59;;;;;;;;;;;;;;;21.88;78.63;98061.72;7369431;19;19919;-72
2023/06/20 05:41:25;;;;;;;;;;;;;;;21.87;78.77;98057.38;7368064;19;20541;-72
2023/06/20 05:43:52;;;;;;;;;;;;;;;22.07;77.23;98057.00;7361487;19;19918;-72
2023/06/20 05:46:19;;;;;;;;;;;;;;;22.12;76.49;98049.03;7371098;19;20002;-72
2023/06/20 05:48:48;;;;;;;;;;;;;;;22.28;77.59;98057.47;7369474;19;19926;-72
2023/06/20 05:51:14;;;;;;;;;;;;;;;22.45;76.99;98049.41;7368696;19;19925;-72
2023/06/20 05:53:41;;;;;;;;;;;;;;;22.50;76.58;98046.81;7366304;19;19925;-72
2023/06/20 05:56:09;;;;;;;;;;;;;;;22.67;75.83;98042.31;7366193;19;19915;-72
2023/06/20 05:58:38;;;;;;;;;;;;;;;22.81;75.81;98045.50;7364278;19;19994;-72
2023/06/20 06:01:05;;;;;;;;;;;;;;;22.85;75.32;98048.53;7367923;19;19915;-72
2023/06/20 06:03:34;;;;;;;;;;;;;;;23.00;74.62;98054.22;7364194;19;19930;-72
2023/06/20 06:06:03;;;;;;;;;;;;;;;23.09;74.25;98047.38;7366992;19;19982;-73
2023/06/20 06:08:30;;;;;;;;;;;;;;;23.19;72.33;98047.53;7371018;19;19941;-72
2023/06/20 06:10:57;;;;;;;;;;;;;;;23.27;71.74;98053.59;7366937;19;20620;-73
2023/06/20 06:13:24;;;;;;;;;;;;;;;23.32;72.73;98049.09;7365331;19;19919;-73
2023/06/20 06:15:50;;;;;;;;;;;;;;;23.45;72.46;98051.44;7362129;19;19930;-73
2023/06/20 06:18:26;;;;;;;;;;;;;;;23.50;71.59;98058.81;7368558;19;19995;-73
2023/06/20 06:20:52;;;;;;;;;;;;;;;23.60;71.24;98063.56;7364577;19;20308;-73
2023/06/20 06:23:19;;;;;;;;;;;;;;;23.83;70.66;98060.69;7364292;19;20252;-72
2023/06/20 06:25:46;;;;;;;;;;;;;;;24.12;69.90;98062.38;7363218;19;20542;-72
2023/06/20 06:28:13;;;;;;;;;;;;;;;24.48;69.98;98053.66;7366231;19;20282;-73
2023/06/20 06:30:39;;;;;;;;;;;;;;;24.72;68.40;98058.78;7365654;19;19939;-73
2023/06/20 06:33:07;;;;;;;;;;;;;;;25.06;68.35;98062.09;7362831;19;20261;-73
2023/06/20 06:35:34;;;;;;;;;;;;;;;25.18;68.80;98064.66;7361406;19;19919;-73
2023/06/20 06:38:00;;;;;;;;;;;;;;;25.13;66.67;98053.75;7370132;19;19919;-73
2023/06/20 06:40:27;;;;;;;;;;;;;;;25.15;66.26;98049.75;7374195;19;19926;-72
2023/06/20 06:42:54;;;;;;;;;;;;;;;25.14;66.87;98053.50;7366727;19;20333;-72
2023/06/20 06:45:21;;;;;;;;;;;;;;;25.12;66.05;98060.22;7371636;19;19919;-72
2023/06/20 06:47:48;;;;;;;;;;;;;;;25.11;65.11;98058.63;7365433;19;19964;-73
2023/06/20 06:50:15;;;;;;;;;;;;;;;25.10;65.67;98062.41;7369545;19;19923;-72
2023/06/20 06:52:42;;;;;;;;;;;;;;;25.05;65.73;98056.94;7352976;19;20324;-72
2023/06/20 06:55:08;;;;;;;;;;;;;;;25.04;65.37;98061.56;7364677;19;19929;-72
2023/06/20 06:57:35;;;;;;;;;;;;;;;25.14;64.52;98053.50;7365300;19;19930;-73
2023/06/20 07:00:09;;;;;;;;;;;;;;;25.05;65.20;98068.59;7372421;19;19919;-72
2023/06/20 07:02:36;;;;;;;;;;;;;;;25.03;64.35;98054.47;7368105;19;19922;-72
2023/06/20 07:05:05;;;;;;;;;;;;;;;25.06;65.55;98059.38;7371708;19;20357;-73
2023/06/20 07:07:32;;;;;;;;;;;;;;;25.13;64.68;98064.59;7370685;19;19947;-72
2023/06/20 07:09:58;;;;;;;;;;;;;;;25.25;65.41;98054.44;7371492;19;19918;-72
2023/06/20 07:12:25;;;;;;;;;;;;;;;25.31;62.89;98053.41;7369875;19;19923;-72
2023/06/20 07:14:56;;;;;;;;;;;;;;;25.39;64.43;98042.09;7371866;19;19998;-72
2023/06/20 07:17:23;;;;;;;;;;;;;;;25.40;63.95;98040.19;7371563;19;19922;-72
2023/06/20 07:19:50;;;;;;;;;;;;;;;25.57;62.88;98051.69;7368126;19;19919;-72
2023/06/20 07:22:17;;;;;;;;;;;;;;;25.48;63.26;98047.03;7367900;19;19930;-72
2023/06/20 07:24:44;;;;;;;;;;;;;;;25.56;62.51;98051.94;7365524;19;20337;-72
2023/06/20 07:27:13;;;;;;;;;;;;;;;25.72;62.71;98042.84;7368897;19;20557;-72
2023/06/20 07:29:41;;;;;;;;;;;;;;;25.77;61.42;98039.34;7364940;19;19923;-72
2023/06/20 07:32:08;;;;;;;;;;;;;;;25.94;61.83;98047.34;7364325;19;19923;-72
2023/06/20 07:34:35;;;;;;;;;;;;;;;25.94;62.12;98045.44;7367402;19;19926;-72
2023/06/20 07:37:01;;;;;;;;;;;;;;;26.09;60.77;98046.56;7369444;19;20648;-72
2023/06/20 07:39:28;;;;;;;;;;;;;;;26.28;60.46;98045.84;7366860;19;20032;-71
2023/06/20 07:41:55;;;;;;;;;;;;;;;26.45;60.79;98039.41;7368070;19;19929;-72
2023/06/20 07:44:22;;;;;;;;;;;;;;;26.48;58.59;98047.00;7373034;19;19919;-71
2023/06/20 07:46:48;;;;;;;;;;;;;;;26.58;61.13;98046.25;7369031;19;20281;-72
2023/06/20 07:49:15;;;;;;;;;;;;;;;26.60;59.94;98046.81;7370480;19;20268;-72
2023/06/20 07:51:43;;;;;;;;;;;;;;;26.64;58.10;98040.53;7365486;19;19922;-72
2023/06/20 07:54:10;;;;;;;;;;;;;;;26.58;58.73;98043.53;7371516;19;19933;-71
2023/06/20 07:56:37;;;;;;;;;;;;;;;26.48;60.49;98041.56;7365032;19;20223;-71
2023/06/20 07:59:04;;;;;;;;;;;;;;;26.50;57.69;98042.13;7374333;19;19923;-73
2023/06/20 08:01:31;;;;;;;;;;;;;;;26.62;58.88;98047.31;7373369;19;19923;-72
2023/06/20 08:03:58;;;;;;;;;;;;;;;26.62;60.16;98045.44;7368315;19;19918;-72
2023/06/20 08:06:25;;;;;;;;;;;;;;;26.81;59.60;98042.22;7369154;19;20534;-72
2023/06/20 08:08:51;;;;;;;;;;;;;;;27.11;57.79;98042.25;7369581;19;20352;-72
2023/06/20 08:11:21;;;;;;;;;;;;;;;27.24;57.38;98046.34;7371263;19;20367;-72
2023/06/20 08:13:48;;;;;;;;;;;;;;;27.38;58.38;98032.22;7365387;19;19915;-72
2023/06/20 08:16:15;;;;;;;;;;;;;;;27.63;57.01;98040.34;7374116;19;19930;-72
2023/06/20 08:18:42;;;;;;;;;;;;;;;27.57;57.01;98033.28;7367021;19;19911;-71
2023/06/20 08:21:09;;;;;;;;;;;;;;;27.66;53.67;98030.81;7379174;19;19918;-72
2023/06/20 08:23:35;;;;;;;;;;;;;;;27.75;54.97;98019.13;7376738;19;19986;-73
2023/06/20 08:26:02;;;;;;;;;;;;;;;27.67;55.41;98027.81;7373472;19;19999;-74
2023/06/20 08:28:29;;;;;;;;;;;;;;;27.79;55.23;98031.06;7371234;19;20276;-73
2023/06/20 08:30:56;;;;;;;;;;;;;;;28.10;53.76;98022.81;7368064;19;20336;-73
2023/06/20 08:33:23;;;;;;;;;;;;;;;28.30;52.61;98021.91;7367648;19;19927;-73
2023/06/20 08:35:50;;;;;;;;;;;;;;;28.54;53.42;98026.72;7367975;19;19956;-72
2023/06/20 08:38:17;;;;;;;;;;;;;;;28.26;54.07;98020.84;7369298;19;19919;-74
2023/06/20 08:40:45;;;;;;;;;;;;;;;28.11;53.12;98015.47;7368184;19;19949;-73
2023/06/20 08:43:13;;;;;;;;;;;;;;;28.17;52.15;98020.63;7369297;19;20257;-74
2023/06/20 08:45:39;;;;;;;;;;;;;;;28.40;53.78;98018.31;7363975;19;19918;-73
2023/06/20 08:48:06;;;;;;;;;;;;;;;28.60;53.26;98018.25;7370660;19;19911;-73
2023/06/20 08:50:33;;;;;;;;;;;;;;;28.91;50.42;98011.75;7372607;19;19934;-73
2023/06/20 08:53:00;;;;;;;;;;;;;;;28.92;50.95;98005.25;7366252;19;19925;-73
2023/06/20 08:55:28;;;;;;;;;;;;;;;29.06;47.31;98009.75;7367276;19;19925;-73
2023/06/20 08:57:56;;;;;;;;;;;;;;;29.11;49.04;98017.09;7367168;19;19925;-74
2023/06/20 09:00:23;;;;;;;;;;;;;;;29.15;48.31;98009.97;7371243;19;19927;-73
2023/06/20 09:02:51;;;;;;;;;;;;;;;29.37;47.51;98008.69;7361914;19;19923;-72
2023/06/20 09:05:18;;;;;;;;;;;;;;;29.32;49.91;98006.81;7368483;19;19988;-73
2023/06/20 09:07:45;;;;;;;;;;;;;;;29.37;49.36;98005.97;7369147;19;19961;-73
2023/06/20 09:10:14;;;;;;;;;;;;;;;29.42;49.15;98001.28;7371981;19;20400;-73
2023/06/20 09:12:44;;;;;;;;;;;;;;;29.75;44.75;98002.34;7362095;19;19927;-72
2023/06/20 09:15:12;;;;;;;;;;;;;;;29.74;47.18;98000.69;7369002;19;19923;-74
2023/06/20 09:17:40;;;;;;;;;;;;;;;29.94;47.00;98002.38;7365951;19;20066;-74
2023/06/20 09:20:07;;;;;;;;;;;;;;;30.16;46.25;97992.84;7368201;19;19919;-74
2023/06/20 09:22:34;;;;;;;;;;;;;;;30.23;46.52;97985.13;7368578;19;19934;-73
2023/06/20 09:25:01;;;;;;;;;;;;;;;30.30;45.34;97982.84;7368834;19;19927;-72
2023/06/20 09:27:34;;;;;;;;;;;;;;;30.27;46.46;97990.81;7371239;19;19942;-73
2023/06/20 09:30:03;;;;;;;;;;;;;;;30.58;42.89;97980.28;7365416;19;19918;-73
2023/06/20 09:32:35;;;;;;;;;;;;;;;30.56;46.64;97974.28;7366374;19;19911;-73
2023/06/20 09:35:02;;;;;;;;;;;;;;;30.70;42.07;97975.19;7366677;19;19943;-73
2023/06/20 09:37:42;;;;;;;;;;;;;;;30.68;44.23;97971.13;7367173;19;20344;-73
2023/06/20 09:40:12;;;;;;;;;;;;;;;30.96;42.54;97975.59;7372862;19;19922;-73
2023/06/20 09:42:40;;;;;;;;;;;;;;;31.14;41.53;97970.38;7366811;19;19953;-73
2023/06/20 09:45:07;;;;;;;;;;;;;;;30.99;44.20;97966.81;7369012;19;19941;-73
2023/06/20 09:47:35;;;;;;;;;;;;;;;31.14;38.87;97964.91;7366024;19;19918;-73
2023/06/20 09:50:06;;;;;;;;;;;;;;;30.86;42.67;97962.13;7364691;19;19918;-73
2023/06/20 09:52:38;;;;;;;;;;;;;;;30.74;43.30;97959.81;7363416;19;20564;-74
2023/06/20 09:55:10;;;;;;;;;;;;;;;30.91;41.99;97962.00;7367324;19;19923;-72
2023/06/20 09:57:44;;;;;;;;;;;;;;;30.82;43.11;97956.44;7367744;19;19926;-73
2023/06/20 10:00:14;;;;;;;;;;;;;;;30.88;42.34;97954.41;7368919;19;20629;-72
2023/06/20 10:02:44;;;;;;;;;;;;;;;30.72;41.74;97953.03;7360582;19;19926;-73
2023/06/20 10:05:12;;;;;;;;;;;;;;;30.91;42.77;97951.09;7367901;19;19947;-73
2023/06/20 10:07:39;;;;;;;;;;;;;;;30.95;43.37;97954.06;7368942;19;19918;-72
2023/06/20 10:10:06;;;;;;;;;;;;;;;30.96;41.61;97947.47;7366199;19;19922;-73
2023/06/20 10:12:33;;;;;;;;;;;;;;;31.20;40.17;97939.94;7359893;19;19918;-73
2023/06/20 10:15:00;;;;;;;;;;;;;;;31.20;42.01;97942.69;7372854;19;20255;-73
2023/06/20 10:17:31;;;;;;;;;;;;;;;31.31;41.28;97943.31;7374343;19;19926;-73
2023/06/20 10:19:59;;;;;;;;;;;;;;;31.35;40.62;97936.09;7372951;19;20795;-74
2023/06/20 10:22:39;;;;;;;;;;;;;;;31.04;37.71;97950.34;7374404;19;20285;-73
2023/06/20 10:25:16;;;;;;;;;;;;;;;31.32;40.04;97942.19;7372287;19;19923;-73
2023/06/20 10:27:44;;;;;;;;;;;;;;;31.32;40.89;97941.38;7370586;19;20345;-73
2023/06/20 10:30:12;;;;;;;;;;;;;;;31.22;40.44;97939.63;7378590;19;20002;-74
2023/06/20 10:32:58;;;;;;;;;;;;;;;31.11;40.98;97939.00;7373946;19;19926;-73
2023/06/20 10:35:26;;;;;;;;;;;;;;;31.26;38.83;97938.75;7374109;19;19963;-73
2023/06/20 10:37:57;;;;;;;;;;;;;;;31.16;38.22;97936.19;7368034;19;19986;-73
2023/06/20 10:40:29;;;;;;;;;;;;;;;31.19;40.62;97935.59;7372356;19;19922;-74
2023/06/20 10:42:55;;;;;;;;;;;;;;;31.21;40.16;97932.56;7368880;19;19929;-73
2023/06/20 10:45:24;;;;;;;;;;;;;;;31.26;39.77;97929.72;7372067;19;19971;-72
2023/06/20 10:47:51;;;;;;;;;;;;;;;31.34;38.60;97923.56;7371609;19;19929;-74
2023/06/20 10:50:18;;;;;;;;;;;;;;;31.33;39.04;97921.94;7375294;19;19914;-74
2023/06/20 10:52:45;;;;;;;;;;;;;;;31.41;38.97;97918.53;7367849;19;19922;-74
2023/06/20 10:55:15;;;;;;;;;;;;;;;31.34;39.13;97923.56;7371854;19;19925;-72
2023/06/20 10:57:49;;;;;;;;;;;;;;;31.38;38.25;97919.13;7372581;19;19922;-73
2023/06/20 11:00:19;;;;;;;;;;;;;;;31.52;34.09;97912.84;7371292;19;19926;-73
2023/06/20 11:02:50;;;;;;;;;;;;;;;31.23;40.24;97916.69;7369689;19;19922;-72
2023/06/20 11:05:17;;;;;;;;;;;;;;;31.57;37.06;97910.00;7377466;19;20271;-72
2023/06/20 11:07:51;;;;;;;;;;;;;;;31.58;37.59;97912.47;7372725;19;19929;-73
2023/06/20 11:10:20;;;;;;;;;;;;;;;31.52;38.07;97910.13;7373921;19;19919;-72
2023/06/20 11:12:47;;;;;;;;;;;;;;;31.44;39.01;97912.47;7370518;19;19923;-72
2023/06/20 11:15:20;;;;;;;;;;;;;;;31.38;36.22;97913.66;7374106;19;19922;-73
2023/06/20 11:17:47;;;;;;;;;;;;;;;31.35;38.25;97911.50;7368046;19;19982;-72
2023/06/20 11:20:16;;;;;;;;;;;;;;;31.33;37.20;97908.25;7374062;19;20404;-73
2023/06/20 11:22:42;;;;;;;;;;;;;;;31.35;37.48;97900.56;7367160;19;19926;-72
2023/06/20 11:25:09;;;;;;;;;;;;;;;31.47;37.57;97897.38;7367775;19;19970;-72
2023/06/20 11:27:36;;;;;;;;;;;;;;;31.53;33.31;97903.56;7370546;19;20522;-72
2023/06/20 11:30:03;;;;;;;;;;;;;;;31.52;35.08;97894.53;7372279;19;19919;-72
2023/06/20 11:32:29;;;;;;;;;;;;;;;31.64;35.02;97897.56;7368922;19;19923;-72
2023/06/20 11:35:00;;;;;;;;;;;;;;;31.63;38.81;97895.16;7365608;19;19918;-73
2023/06/20 11:37:27;;;;;;;;;;;;;;;31.60;36.80;97893.03;7371801;19;20229;-73
2023/06/20 11:39:56;;;;;;;;;;;;;;;31.69;36.93;97883.78;7371545;19;19930;-72
2023/06/20 11:42:23;;;;;;;;;;;;;;;31.75;35.51;97880.94;7369780;19;19922;-73
2023/06/20 11:44:50;;;;;;;;;;;;;;;31.79;35.77;97885.50;7372542;19;19919;-72
2023/06/20 11:47:16;;;;;;;;;;;;;;;31.68;36.57;97884.91;7372584;19;19934;-73
2023/06/20 11:49:43;;;;;;;;;;;;;;;31.79;37.66;97877.28;7369704;19;19925;-73
2023/06/20 11:52:10;;;;;;;;;;;;;;;31.87;33.50;97875.75;7369363;19;19981;-72
2023/06/20 11:54:49;;;;;;;;;;;;;;;31.43;36.62;97867.09;7373486;19;19998;-71
2023/06/20 11:57:26;;;;;;;;;;;;;;;31.86;33.11;97868.66;7374166;19;19925;-72
2023/06/20 11:59:53;;;;;;;;;;;;;;;31.68;35.67;97864.97;7370765;19;19923;-72
2023/06/20 12:02:20;;;;;;;;;;;;;;;31.64;33.48;97863.94;7379182;19;19919;-72
2023/06/20 12:04:57;;;;;;;;;;;;;;;31.51;35.84;97868.31;7369710;19;19982;-72
2023/06/20 12:07:25;;;;;;;;;;;;;;;31.47;35.78;97859.09;7371263;19;19922;-72
2023/06/20 12:09:52;;;;;;;;;;;;;;;31.51;37.04;97862.84;7370353;19;19919;-71
2023/06/20 12:12:18;;;;;;;;;;;;;;;31.64;33.76;97862.00;7369047;19;20486;-71
2023/06/20 12:14:51;;;;;;;;;;;;;;;31.62;33.13;97860.69;7372766;19;20361;-72
2023/06/20 12:17:19;;;;;;;;;;;;;;;31.83;33.72;97863.81;7368273;19;19919;-71
2023/06/20 12:19:50;;;;;;;;;;;;;;;31.83;34.94;97858.34;7364463;19;19931;-72
2023/06/20 12:22:16;;;;;;;;;;;;;;;32.04;33.02;97861.44;7363152;19;19948;-72
2023/06/20 12:24:43;;;;;;;;;;;;;;;32.17;32.64;97857.84;7370059;19;20757;-72
2023/06/20 12:27:11;;;;;;;;;;;;;;;32.11;32.40;97850.91;7369284;19;19918;-71
2023/06/20 12:29:38;;;;;;;;;;;;;;;31.97;33.29;97847.41;7373738;19;19929;-71
2023/06/20 12:32:05;;;;;;;;;;;;;;;31.98;33.77;97840.81;7366118;19;19919;-70
2023/06/20 12:34:31;;;;;;;;;;;;;;;31.96;34.51;97841.09;7368966;19;19974;-72
2023/06/20 12:36:59;;;;;;;;;;;;;;;31.98;34.10;97843.53;7366870;19;19911;-72
2023/06/20 12:39:25;;;;;;;;;;;;;;;31.95;34.84;97844.16;7366753;19;19925;-74
2023/06/20 12:41:52;;;;;;;;;;;;;;;32.12;32.93;97839.66;7364812;19;20598;-72
2023/06/20 12:44:19;;;;;;;;;;;;;;;32.09;34.55;97842.19;7368339;19;19927;-71
2023/06/20 12:46:45;;;;;;;;;;;;;;;32.21;32.89;97847.13;7367050;19;19985;-71
2023/06/20 12:49:12;;;;;;;;;;;;;;;32.20;32.13;97840.00;7368772;19;20914;-71
2023/06/20 12:51:39;;;;;;;;;;;;;;;32.56;31.31;97838.03;7369900;19;19952;-72